RYS1K EPKT-LGKO
Flight info
| Callsign | RYS1K |
|---|---|
| Flight time | 2h 9m |
| Altitude | 37000 |
| Route | BABKO DCT NEPAK DCT VASIS DCT PENEV DCT D062L DCT MARIK |
| Aircraft | B738/M-SDE3FGILRWY/SB1 |
Departure
| Time | 2026-05-07 13:06 |
|---|---|
| Airport | Katowice Wojciech Korfanty International Airport (EPKT) |
Arrival
| Time | 2026-05-07 15:15 |
|---|---|
| Airport | Kos International Airport "Ippokratis" (LGKO) |
| Time | Latitude | Longitude | Altitude | Speed | Heading |
|---|---|---|---|---|---|
| 2026-05-07 12:24 | 50.47152 | 19.08344 | 997 ft | 0 kts | 180° |
| 2026-05-07 12:57 | 50.47165 | 19.08345 | 1000 ft | 3 kts | 180° |
| 2026-05-07 12:57 | 50.47185 | 19.08345 | 999 ft | 3 kts | 180° |
| 2026-05-07 12:57 | 50.47205 | 19.08345 | 997 ft | 3 kts | 177° |
| 2026-05-07 12:57 | 50.47223 | 19.08339 | 1000 ft | 3 kts | 139° |
| 2026-05-07 12:58 | 50.47232 | 19.08318 | 997 ft | 2 kts | 95° |
| 2026-05-07 12:58 | 50.47233 | 19.08301 | 997 ft | 2 kts | 90° |
| 2026-05-07 12:58 | 50.47233 | 19.08274 | 997 ft | 1 kts | 90° |
| 2026-05-07 12:58 | 50.47233 | 19.08270 | 997 ft | 0 kts | 90° |
| 2026-05-07 13:01 | 50.47233 | 19.08276 | 997 ft | 3 kts | 89° |
| 2026-05-07 13:01 | 50.47232 | 19.08351 | 1003 ft | 12 kts | 90° |
| 2026-05-07 13:01 | 50.47232 | 19.08521 | 1003 ft | 20 kts | 90° |
| 2026-05-07 13:01 | 50.47232 | 19.08785 | 1003 ft | 28 kts | 90° |
| 2026-05-07 13:02 | 50.47230 | 19.09087 | 1003 ft | 27 kts | 92° |
| 2026-05-07 13:02 | 50.47229 | 19.09371 | 1001 ft | 25 kts | 91° |
| 2026-05-07 13:02 | 50.47228 | 19.09637 | 1002 ft | 23 kts | 90° |
| 2026-05-07 13:02 | 50.47229 | 19.09886 | 1001 ft | 23 kts | 95° |
| 2026-05-07 13:03 | 50.47275 | 19.10105 | 1001 ft | 22 kts | 52° |
| 2026-05-07 13:03 | 50.47367 | 19.10291 | 997 ft | 19 kts | 52° |
| 2026-05-07 13:03 | 50.47411 | 19.10380 | 998 ft | 0 kts | 52° |
| 2026-05-07 13:04 | 50.47421 | 19.10401 | 999 ft | 7 kts | 52° |
| 2026-05-07 13:04 | 50.47472 | 19.10449 | 998 ft | 10 kts | 5° |
| 2026-05-07 13:04 | 50.47556 | 19.10446 | 1000 ft | 14 kts | 343° |
| 2026-05-07 13:05 | 50.47594 | 19.10354 | 998 ft | 0 kts | 270° |
| 2026-05-07 13:05 | 50.47594 | 19.10352 | 998 ft | 1 kts | 270° |
| 2026-05-07 13:05 | 50.47595 | 19.10155 | 1001 ft | 51 kts | 270° |
| 2026-05-07 13:05 | 50.47597 | 19.09215 | 1001 ft | 119 kts | 270° |
| 2026-05-07 13:06 | 50.47601 | 19.07616 | 1079 ft | 166 kts | 269° |
| 2026-05-07 13:06 | 50.47617 | 19.05762 | 1823 ft | 171 kts | 270° |
| 2026-05-07 13:06 | 50.47635 | 19.03907 | 2675 ft | 174 kts | 270° |
| 2026-05-07 13:06 | 50.47645 | 19.01889 | 3204 ft | 193 kts | 269° |
| 2026-05-07 13:07 | 50.47647 | 18.99656 | 3542 ft | 219 kts | 268° |
| 2026-05-07 13:07 | 50.47434 | 18.97196 | 3931 ft | 238 kts | 246° |
| 2026-05-07 13:07 | 50.46330 | 18.95187 | 4412 ft | 251 kts | 211° |
| 2026-05-07 13:07 | 50.44663 | 18.94352 | 5180 ft | 260 kts | 184° |
| 2026-05-07 13:08 | 50.42858 | 18.94767 | 5983 ft | 267 kts | 165° |
| 2026-05-07 13:08 | 50.41098 | 18.95792 | 6740 ft | 272 kts | 161° |
| 2026-05-07 13:08 | 50.39354 | 18.96965 | 7518 ft | 274 kts | 160° |
| 2026-05-07 13:08 | 50.37601 | 18.98168 | 8306 ft | 276 kts | 160° |
| 2026-05-07 13:09 | 50.35831 | 18.99372 | 9090 ft | 279 kts | 160° |
| 2026-05-07 13:09 | 50.34038 | 19.00577 | 9891 ft | 281 kts | 161° |
| 2026-05-07 13:09 | 50.32222 | 19.01781 | 10440 ft | 291 kts | 161° |
| 2026-05-07 13:09 | 50.30271 | 19.03056 | 10601 ft | 315 kts | 161° |
| 2026-05-07 13:10 | 50.28223 | 19.04386 | 10956 ft | 329 kts | 161° |
| 2026-05-07 13:10 | 50.26092 | 19.05769 | 11603 ft | 333 kts | 161° |
| 2026-05-07 13:10 | 50.23946 | 19.07158 | 12383 ft | 335 kts | 160° |
| 2026-05-07 13:10 | 50.21789 | 19.08552 | 13160 ft | 337 kts | 160° |
| 2026-05-07 13:11 | 50.19609 | 19.09955 | 13889 ft | 341 kts | 160° |
| 2026-05-07 13:11 | 50.17401 | 19.11373 | 14575 ft | 344 kts | 160° |
| 2026-05-07 13:11 | 50.15181 | 19.12795 | 15294 ft | 347 kts | 161° |
| 2026-05-07 13:11 | 50.12936 | 19.14231 | 15978 ft | 351 kts | 161° |
| 2026-05-07 13:12 | 50.10664 | 19.15682 | 16646 ft | 355 kts | 161° |
| 2026-05-07 13:12 | 50.08365 | 19.17149 | 17324 ft | 359 kts | 161° |
| 2026-05-07 13:12 | 50.06047 | 19.18627 | 18018 ft | 362 kts | 161° |
| 2026-05-07 13:12 | 50.03700 | 19.20121 | 18633 ft | 366 kts | 161° |
| 2026-05-07 13:13 | 50.01337 | 19.21625 | 19281 ft | 367 kts | 162° |
| 2026-05-07 13:13 | 49.98967 | 19.23131 | 19922 ft | 369 kts | 162° |
| 2026-05-07 13:13 | 49.96586 | 19.24643 | 20537 ft | 371 kts | 162° |
| 2026-05-07 13:13 | 49.94193 | 19.26161 | 21194 ft | 372 kts | 162° |
| 2026-05-07 13:14 | 49.91795 | 19.27681 | 21829 ft | 373 kts | 162° |
| 2026-05-07 13:14 | 49.89383 | 19.29206 | 22374 ft | 376 kts | 162° |
| 2026-05-07 13:14 | 49.86944 | 19.30747 | 22912 ft | 379 kts | 162° |
| 2026-05-07 13:14 | 49.84496 | 19.32292 | 23459 ft | 382 kts | 162° |
| 2026-05-07 13:15 | 49.82029 | 19.33848 | 23933 ft | 384 kts | 162° |
| 2026-05-07 13:15 | 49.79553 | 19.35409 | 24373 ft | 386 kts | 162° |
| 2026-05-07 13:15 | 49.77895 | 19.36457 | 24569 ft | 390 kts | 162° |
| 2026-05-07 13:15 | 49.75369 | 19.38045 | 24935 ft | 394 kts | 162° |
| 2026-05-07 13:16 | 49.72825 | 19.39640 | 25424 ft | 395 kts | 162° |
| 2026-05-07 13:16 | 49.70279 | 19.41238 | 25900 ft | 396 kts | 162° |
| 2026-05-07 13:16 | 49.67723 | 19.42841 | 26322 ft | 398 kts | 162° |
| 2026-05-07 13:16 | 49.65153 | 19.44449 | 26705 ft | 400 kts | 162° |
| 2026-05-07 13:17 | 49.62572 | 19.46069 | 27127 ft | 402 kts | 161° |
| 2026-05-07 13:17 | 49.60061 | 19.48031 | 27501 ft | 409 kts | 152° |
| 2026-05-07 13:17 | 49.57701 | 19.50527 | 27793 ft | 413 kts | 149° |
| 2026-05-07 13:17 | 49.55347 | 19.53102 | 28184 ft | 416 kts | 149° |
| 2026-05-07 13:18 | 49.52988 | 19.55696 | 28576 ft | 417 kts | 149° |
| 2026-05-07 13:18 | 49.50620 | 19.58291 | 28947 ft | 419 kts | 149° |
| 2026-05-07 13:18 | 49.48239 | 19.60885 | 29218 ft | 422 kts | 150° |
| 2026-05-07 13:18 | 49.45812 | 19.63513 | 29322 ft | 430 kts | 150° |
| 2026-05-07 13:19 | 49.43352 | 19.66164 | 29577 ft | 433 kts | 150° |
| 2026-05-07 13:19 | 49.40877 | 19.68829 | 29967 ft | 434 kts | 150° |
| 2026-05-07 13:19 | 49.38402 | 19.71488 | 30293 ft | 435 kts | 150° |
| 2026-05-07 13:19 | 49.35926 | 19.74144 | 30637 ft | 434 kts | 150° |
| 2026-05-07 13:20 | 49.33455 | 19.76792 | 31034 ft | 432 kts | 150° |
| 2026-05-07 13:20 | 49.30997 | 19.79423 | 31452 ft | 431 kts | 150° |
| 2026-05-07 13:20 | 49.28539 | 19.82049 | 31836 ft | 430 kts | 151° |
| 2026-05-07 13:20 | 49.26086 | 19.84666 | 32209 ft | 429 kts | 151° |
| 2026-05-07 13:21 | 49.23648 | 19.87264 | 32640 ft | 427 kts | 151° |
| 2026-05-07 13:21 | 49.21244 | 19.89821 | 32943 ft | 427 kts | 151° |
| 2026-05-07 13:21 | 49.18797 | 19.92419 | 33193 ft | 429 kts | 151° |
| 2026-05-07 13:21 | 49.16346 | 19.95020 | 33573 ft | 428 kts | 152° |
| 2026-05-07 13:22 | 49.13907 | 19.97608 | 34008 ft | 425 kts | 152° |
| 2026-05-07 13:22 | 49.11478 | 20.00182 | 34339 ft | 424 kts | 152° |
| 2026-05-07 13:22 | 49.09060 | 20.02741 | 34641 ft | 423 kts | 152° |
| 2026-05-07 13:22 | 49.06640 | 20.05297 | 34879 ft | 424 kts | 152° |
| 2026-05-07 13:23 | 49.04213 | 20.07855 | 35120 ft | 424 kts | 152° |
| 2026-05-07 13:23 | 49.01796 | 20.10402 | 35409 ft | 423 kts | 152° |
| 2026-05-07 13:23 | 48.99380 | 20.12946 | 35670 ft | 422 kts | 152° |
| 2026-05-07 13:23 | 48.96964 | 20.15485 | 35871 ft | 423 kts | 151° |
| 2026-05-07 13:24 | 48.94537 | 20.18032 | 35984 ft | 425 kts | 151° |
| 2026-05-07 13:24 | 48.92099 | 20.20587 | 36149 ft | 426 kts | 151° |
| 2026-05-07 13:24 | 48.89666 | 20.23137 | 36408 ft | 424 kts | 151° |
| 2026-05-07 13:24 | 48.87236 | 20.25680 | 36688 ft | 423 kts | 151° |
| 2026-05-07 13:25 | 48.84813 | 20.28214 | 36834 ft | 423 kts | 151° |
| 2026-05-07 13:25 | 48.82392 | 20.30742 | 36962 ft | 421 kts | 151° |
| 2026-05-07 13:25 | 48.77572 | 20.35765 | 36963 ft | 422 kts | 151° |
| 2026-05-07 13:26 | 48.72688 | 20.40837 | 36972 ft | 429 kts | 151° |
| 2026-05-07 13:26 | 48.67724 | 20.45985 | 36974 ft | 436 kts | 151° |
| 2026-05-07 13:27 | 48.62705 | 20.51179 | 36975 ft | 443 kts | 151° |
| 2026-05-07 13:27 | 48.57398 | 20.55870 | 36971 ft | 442 kts | 158° |
| 2026-05-07 13:28 | 48.51848 | 20.59921 | 36963 ft | 444 kts | 159° |
| 2026-05-07 13:28 | 48.46267 | 20.63961 | 36960 ft | 445 kts | 159° |
| 2026-05-07 13:29 | 48.40690 | 20.68057 | 36922 ft | 446 kts | 158° |
| 2026-05-07 13:29 | 48.35129 | 20.72168 | 36948 ft | 446 kts | 158° |
| 2026-05-07 13:30 | 48.29562 | 20.76283 | 36958 ft | 446 kts | 158° |
| 2026-05-07 13:30 | 48.23996 | 20.80388 | 36954 ft | 446 kts | 158° |
| 2026-05-07 13:31 | 48.18436 | 20.84477 | 36961 ft | 445 kts | 158° |
| 2026-05-07 13:31 | 48.12864 | 20.88564 | 36961 ft | 445 kts | 158° |
| 2026-05-07 13:32 | 48.07312 | 20.92627 | 36960 ft | 444 kts | 158° |
| 2026-05-07 13:32 | 48.01758 | 20.96681 | 36960 ft | 444 kts | 158° |
| 2026-05-07 13:33 | 47.96206 | 21.00723 | 36971 ft | 444 kts | 158° |
| 2026-05-07 13:33 | 47.90660 | 21.04751 | 36973 ft | 444 kts | 158° |
| 2026-05-07 13:34 | 47.82365 | 21.10758 | 36977 ft | 444 kts | 159° |
| 2026-05-07 13:35 | 47.76774 | 21.14796 | 36990 ft | 444 kts | 159° |
| 2026-05-07 13:35 | 47.71249 | 21.18775 | 36988 ft | 444 kts | 159° |
| 2026-05-07 13:36 | 47.65693 | 21.22769 | 36987 ft | 444 kts | 159° |
| 2026-05-07 13:36 | 47.60138 | 21.26752 | 36995 ft | 443 kts | 159° |
| 2026-05-07 13:37 | 47.54591 | 21.30719 | 36994 ft | 443 kts | 159° |
| 2026-05-07 13:37 | 47.49046 | 21.34675 | 36981 ft | 443 kts | 159° |
| 2026-05-07 13:38 | 47.43495 | 21.38626 | 36993 ft | 443 kts | 159° |
| 2026-05-07 13:38 | 47.37948 | 21.42566 | 37008 ft | 443 kts | 159° |
| 2026-05-07 13:39 | 47.32382 | 21.46509 | 37000 ft | 444 kts | 159° |
| 2026-05-07 13:39 | 47.26822 | 21.50440 | 37011 ft | 444 kts | 159° |
| 2026-05-07 13:40 | 47.21248 | 21.54370 | 37017 ft | 444 kts | 159° |
| 2026-05-07 13:40 | 47.15709 | 21.58267 | 37012 ft | 445 kts | 159° |
| 2026-05-07 13:41 | 47.10112 | 21.62195 | 37041 ft | 446 kts | 159° |
| 2026-05-07 13:41 | 47.04502 | 21.66123 | 37049 ft | 447 kts | 159° |
| 2026-05-07 13:42 | 46.98881 | 21.70051 | 37042 ft | 448 kts | 159° |
| 2026-05-07 13:42 | 46.93257 | 21.73971 | 37048 ft | 448 kts | 159° |
| 2026-05-07 13:43 | 46.87632 | 21.77883 | 37034 ft | 448 kts | 159° |
| 2026-05-07 13:43 | 46.82005 | 21.81787 | 37040 ft | 448 kts | 159° |
| 2026-05-07 13:44 | 46.76374 | 21.85684 | 37035 ft | 448 kts | 159° |
| 2026-05-07 13:44 | 46.70738 | 21.89575 | 37024 ft | 448 kts | 159° |
| 2026-05-07 13:45 | 46.65100 | 21.93460 | 37026 ft | 448 kts | 159° |
| 2026-05-07 13:45 | 46.59495 | 21.97313 | 37009 ft | 449 kts | 159° |
| 2026-05-07 13:46 | 46.53840 | 22.01190 | 37024 ft | 450 kts | 159° |
| 2026-05-07 13:46 | 46.48180 | 22.05062 | 37023 ft | 450 kts | 159° |
| 2026-05-07 13:47 | 46.42504 | 22.08937 | 37028 ft | 451 kts | 159° |
| 2026-05-07 13:47 | 46.36827 | 22.12804 | 37023 ft | 451 kts | 159° |
| 2026-05-07 13:48 | 46.31152 | 22.16659 | 37010 ft | 451 kts | 159° |
| 2026-05-07 13:48 | 46.25471 | 22.20511 | 37025 ft | 450 kts | 159° |
| 2026-05-07 13:49 | 46.19794 | 22.24352 | 37026 ft | 450 kts | 159° |
| 2026-05-07 13:49 | 46.14124 | 22.28178 | 37020 ft | 450 kts | 159° |
| 2026-05-07 13:50 | 46.08450 | 22.31998 | 37033 ft | 450 kts | 159° |
| 2026-05-07 13:50 | 46.02771 | 22.35814 | 37002 ft | 450 kts | 159° |
| 2026-05-07 13:51 | 45.97097 | 22.39618 | 37010 ft | 450 kts | 159° |
| 2026-05-07 13:51 | 45.91323 | 22.43034 | 37030 ft | 447 kts | 165° |
| 2026-05-07 13:52 | 45.85444 | 22.45934 | 37020 ft | 447 kts | 166° |
| 2026-05-07 13:52 | 45.79550 | 22.48803 | 37018 ft | 448 kts | 165° |
| 2026-05-07 13:53 | 45.73655 | 22.51722 | 37017 ft | 448 kts | 165° |
| 2026-05-07 13:53 | 45.67767 | 22.54667 | 37016 ft | 449 kts | 165° |
| 2026-05-07 13:54 | 45.61875 | 22.57616 | 37026 ft | 449 kts | 165° |
| 2026-05-07 13:54 | 45.55977 | 22.60562 | 37031 ft | 449 kts | 165° |
| 2026-05-07 13:55 | 45.50066 | 22.63506 | 37040 ft | 450 kts | 165° |
| 2026-05-07 13:55 | 45.44157 | 22.66443 | 37040 ft | 450 kts | 165° |
| 2026-05-07 13:56 | 45.38245 | 22.69373 | 37036 ft | 450 kts | 165° |
| 2026-05-07 13:56 | 45.32325 | 22.72301 | 37056 ft | 450 kts | 165° |
| 2026-05-07 13:57 | 45.26406 | 22.75223 | 37041 ft | 450 kts | 165° |
| 2026-05-07 13:57 | 45.20489 | 22.78109 | 37068 ft | 448 kts | 166° |
| 2026-05-07 13:58 | 45.14577 | 22.80969 | 37076 ft | 449 kts | 165° |
| 2026-05-07 13:58 | 45.08724 | 22.83882 | 37057 ft | 450 kts | 165° |
| 2026-05-07 13:59 | 45.02903 | 22.86755 | 37058 ft | 450 kts | 165° |
| 2026-05-07 13:59 | 44.96990 | 22.89649 | 37050 ft | 450 kts | 165° |
| 2026-05-07 14:00 | 44.91071 | 22.92532 | 37060 ft | 450 kts | 165° |
| 2026-05-07 14:00 | 44.85194 | 22.95387 | 37058 ft | 450 kts | 165° |
| 2026-05-07 14:01 | 44.79295 | 22.98248 | 37061 ft | 450 kts | 165° |
| 2026-05-07 14:01 | 44.73370 | 23.01115 | 37053 ft | 450 kts | 165° |
| 2026-05-07 14:02 | 44.67471 | 23.03965 | 37054 ft | 449 kts | 165° |
| 2026-05-07 14:02 | 44.61546 | 23.06820 | 37054 ft | 449 kts | 165° |
| 2026-05-07 14:03 | 44.55639 | 23.09660 | 37058 ft | 449 kts | 165° |
| 2026-05-07 14:03 | 44.49738 | 23.12492 | 37056 ft | 449 kts | 165° |
| 2026-05-07 14:04 | 44.43838 | 23.15316 | 37043 ft | 449 kts | 165° |
| 2026-05-07 14:04 | 44.38938 | 23.17657 | 37052 ft | 449 kts | 165° |
| 2026-05-07 14:05 | 44.32051 | 23.20941 | 37051 ft | 449 kts | 165° |
| 2026-05-07 14:05 | 44.27100 | 23.23297 | 37052 ft | 449 kts | 165° |
| 2026-05-07 14:06 | 44.21211 | 23.26094 | 37048 ft | 449 kts | 165° |
| 2026-05-07 14:06 | 44.15289 | 23.28900 | 37038 ft | 450 kts | 165° |
| 2026-05-07 14:07 | 44.09314 | 23.31725 | 37049 ft | 451 kts | 165° |
| 2026-05-07 14:07 | 44.03356 | 23.34537 | 37051 ft | 452 kts | 165° |
| 2026-05-07 14:08 | 43.97443 | 23.37321 | 37050 ft | 452 kts | 165° |
| 2026-05-07 14:08 | 43.91488 | 23.40119 | 37050 ft | 453 kts | 165° |
| 2026-05-07 14:09 | 43.85523 | 23.42916 | 37042 ft | 453 kts | 165° |
| 2026-05-07 14:09 | 43.79535 | 23.45718 | 37049 ft | 454 kts | 165° |
| 2026-05-07 14:10 | 43.73559 | 23.48508 | 37053 ft | 454 kts | 165° |
| 2026-05-07 14:10 | 43.67550 | 23.51308 | 37050 ft | 454 kts | 165° |
| 2026-05-07 14:11 | 43.61928 | 23.53922 | 37061 ft | 454 kts | 165° |
| 2026-05-07 14:11 | 43.55908 | 23.56716 | 37039 ft | 455 kts | 165° |
| 2026-05-07 14:12 | 43.49945 | 23.59477 | 37057 ft | 456 kts | 165° |
| 2026-05-07 14:12 | 43.43945 | 23.62250 | 37060 ft | 456 kts | 165° |
| 2026-05-07 14:13 | 43.37921 | 23.65028 | 37051 ft | 456 kts | 165° |
| 2026-05-07 14:13 | 43.31948 | 23.67777 | 37060 ft | 456 kts | 165° |
| 2026-05-07 14:14 | 43.25934 | 23.70539 | 37071 ft | 456 kts | 165° |
| 2026-05-07 14:14 | 43.19910 | 23.73299 | 37078 ft | 457 kts | 165° |
| 2026-05-07 14:15 | 43.13871 | 23.76060 | 37090 ft | 458 kts | 165° |
| 2026-05-07 14:15 | 43.07801 | 23.78833 | 37064 ft | 460 kts | 165° |
| 2026-05-07 14:16 | 43.01744 | 23.81646 | 37055 ft | 458 kts | 163° |
| 2026-05-07 14:16 | 42.95895 | 23.84810 | 37090 ft | 460 kts | 161° |
| 2026-05-07 14:17 | 42.89941 | 23.88173 | 37089 ft | 461 kts | 161° |
| 2026-05-07 14:17 | 42.84059 | 23.91461 | 37086 ft | 461 kts | 161° |
| 2026-05-07 14:18 | 42.78082 | 23.94758 | 37087 ft | 460 kts | 162° |
| 2026-05-07 14:18 | 42.72157 | 23.98005 | 37081 ft | 459 kts | 162° |
| 2026-05-07 14:19 | 42.66226 | 24.01244 | 37094 ft | 459 kts | 162° |
| 2026-05-07 14:19 | 42.60308 | 24.04472 | 37098 ft | 460 kts | 162° |
| 2026-05-07 14:20 | 42.54359 | 24.07710 | 37095 ft | 460 kts | 162° |
| 2026-05-07 14:20 | 42.48419 | 24.10938 | 37096 ft | 460 kts | 162° |
| 2026-05-07 14:21 | 42.42486 | 24.14155 | 37080 ft | 460 kts | 162° |
| 2026-05-07 14:21 | 42.36576 | 24.17352 | 37087 ft | 461 kts | 162° |
| 2026-05-07 14:22 | 42.30595 | 24.20582 | 37094 ft | 463 kts | 162° |
| 2026-05-07 14:22 | 42.24555 | 24.23836 | 37085 ft | 465 kts | 162° |
| 2026-05-07 14:23 | 42.18581 | 24.27050 | 37087 ft | 465 kts | 162° |
| 2026-05-07 14:23 | 42.12591 | 24.30265 | 37087 ft | 466 kts | 162° |
| 2026-05-07 14:24 | 42.06578 | 24.33486 | 37080 ft | 466 kts | 162° |
| 2026-05-07 14:24 | 42.00601 | 24.36681 | 37099 ft | 465 kts | 162° |
| 2026-05-07 14:25 | 41.94516 | 24.39927 | 37079 ft | 465 kts | 162° |
| 2026-05-07 14:25 | 41.88500 | 24.43129 | 37102 ft | 467 kts | 161° |
| 2026-05-07 14:26 | 41.82457 | 24.46338 | 37115 ft | 469 kts | 161° |
| 2026-05-07 14:26 | 41.76472 | 24.49511 | 37123 ft | 470 kts | 161° |
| 2026-05-07 14:27 | 41.70415 | 24.52717 | 37102 ft | 471 kts | 162° |
| 2026-05-07 14:27 | 41.64295 | 24.55949 | 37116 ft | 471 kts | 162° |
| 2026-05-07 14:28 | 41.58190 | 24.59166 | 37119 ft | 471 kts | 162° |
| 2026-05-07 14:28 | 41.52084 | 24.62377 | 37125 ft | 471 kts | 162° |
| 2026-05-07 14:29 | 41.45992 | 24.65574 | 37116 ft | 471 kts | 162° |
| 2026-05-07 14:29 | 41.39933 | 24.68747 | 37114 ft | 472 kts | 162° |
| 2026-05-07 14:30 | 41.33759 | 24.71974 | 37116 ft | 472 kts | 162° |
| 2026-05-07 14:30 | 41.27653 | 24.75159 | 37109 ft | 472 kts | 162° |
| 2026-05-07 14:31 | 41.21558 | 24.78332 | 37118 ft | 473 kts | 162° |
| 2026-05-07 14:31 | 41.15452 | 24.81504 | 37098 ft | 473 kts | 162° |
| 2026-05-07 14:32 | 41.09329 | 24.84679 | 37106 ft | 472 kts | 162° |
| 2026-05-07 14:32 | 41.03201 | 24.87850 | 37084 ft | 473 kts | 162° |
| 2026-05-07 14:33 | 40.97060 | 24.91020 | 37104 ft | 474 kts | 162° |
| 2026-05-07 14:33 | 40.90905 | 24.94192 | 37102 ft | 475 kts | 162° |
| 2026-05-07 14:34 | 40.84733 | 24.97367 | 37107 ft | 476 kts | 162° |
| 2026-05-07 14:34 | 40.78560 | 25.00536 | 37114 ft | 477 kts | 162° |
| 2026-05-07 14:35 | 40.72365 | 25.03710 | 37116 ft | 479 kts | 162° |
| 2026-05-07 14:35 | 40.66146 | 25.06889 | 37126 ft | 480 kts | 162° |
| 2026-05-07 14:36 | 40.59905 | 25.10073 | 37117 ft | 482 kts | 162° |
| 2026-05-07 14:36 | 40.53647 | 25.13260 | 37121 ft | 482 kts | 162° |
| 2026-05-07 14:37 | 40.47379 | 25.16446 | 37121 ft | 483 kts | 162° |
| 2026-05-07 14:37 | 40.37978 | 25.21212 | 37121 ft | 483 kts | 162° |
| 2026-05-07 14:38 | 40.31704 | 25.24384 | 37122 ft | 483 kts | 162° |
| 2026-05-07 14:38 | 40.25433 | 25.27549 | 37126 ft | 483 kts | 162° |
| 2026-05-07 14:39 | 40.19168 | 25.30704 | 37121 ft | 483 kts | 162° |
| 2026-05-07 14:39 | 40.12899 | 25.33855 | 37106 ft | 483 kts | 162° |
| 2026-05-07 14:40 | 40.06628 | 25.37001 | 37126 ft | 483 kts | 162° |
| 2026-05-07 14:40 | 40.00352 | 25.40143 | 37131 ft | 483 kts | 162° |
| 2026-05-07 14:41 | 39.94109 | 25.43262 | 37128 ft | 484 kts | 162° |
| 2026-05-07 14:41 | 39.87816 | 25.46400 | 37128 ft | 484 kts | 163° |
| 2026-05-07 14:42 | 39.81523 | 25.49533 | 37128 ft | 484 kts | 163° |
| 2026-05-07 14:42 | 39.75232 | 25.52658 | 37128 ft | 484 kts | 163° |
| 2026-05-07 14:43 | 39.68933 | 25.55781 | 37117 ft | 484 kts | 163° |
| 2026-05-07 14:43 | 39.62640 | 25.58895 | 37123 ft | 484 kts | 163° |
| 2026-05-07 14:44 | 39.56343 | 25.62004 | 37125 ft | 484 kts | 163° |
| 2026-05-07 14:44 | 39.50046 | 25.65108 | 37116 ft | 484 kts | 162° |
| 2026-05-07 14:45 | 39.43739 | 25.68210 | 37117 ft | 485 kts | 163° |
| 2026-05-07 14:45 | 39.37430 | 25.71308 | 37128 ft | 485 kts | 163° |
| 2026-05-07 14:46 | 39.31115 | 25.74402 | 37125 ft | 486 kts | 163° |
| 2026-05-07 14:46 | 39.24795 | 25.77493 | 37126 ft | 486 kts | 163° |
| 2026-05-07 14:47 | 39.18465 | 25.80583 | 37130 ft | 486 kts | 163° |
| 2026-05-07 14:47 | 39.12132 | 25.83668 | 37129 ft | 487 kts | 163° |
| 2026-05-07 14:48 | 39.05783 | 25.86755 | 37132 ft | 488 kts | 163° |
| 2026-05-07 14:48 | 38.99434 | 25.89837 | 37114 ft | 488 kts | 163° |
| 2026-05-07 14:49 | 38.93075 | 25.92917 | 37125 ft | 489 kts | 163° |
| 2026-05-07 14:49 | 38.86705 | 25.95997 | 37075 ft | 490 kts | 163° |
| 2026-05-07 14:50 | 38.83494 | 25.97545 | 36709 ft | 493 kts | 163° |
| 2026-05-07 14:50 | 38.80290 | 25.99092 | 36336 ft | 492 kts | 163° |
| 2026-05-07 14:50 | 38.77144 | 26.00609 | 35929 ft | 487 kts | 162° |
| 2026-05-07 14:50 | 38.73991 | 26.02129 | 35504 ft | 484 kts | 162° |
| 2026-05-07 14:51 | 38.70829 | 26.03649 | 35098 ft | 485 kts | 162° |
| 2026-05-07 14:51 | 38.67675 | 26.05164 | 34679 ft | 484 kts | 162° |
| 2026-05-07 14:51 | 38.64522 | 26.06678 | 34266 ft | 484 kts | 162° |
| 2026-05-07 14:51 | 38.61375 | 26.08187 | 33799 ft | 483 kts | 162° |
| 2026-05-07 14:52 | 38.58234 | 26.09693 | 33406 ft | 482 kts | 162° |
| 2026-05-07 14:52 | 38.55082 | 26.11204 | 33164 ft | 485 kts | 162° |
| 2026-05-07 14:52 | 38.51913 | 26.12722 | 32854 ft | 487 kts | 162° |
| 2026-05-07 14:52 | 38.49811 | 26.13727 | 32605 ft | 488 kts | 162° |
| 2026-05-07 14:53 | 38.46590 | 26.15266 | 32204 ft | 488 kts | 162° |
| 2026-05-07 14:53 | 38.43449 | 26.16766 | 31771 ft | 489 kts | 162° |
| 2026-05-07 14:53 | 38.40255 | 26.18291 | 31334 ft | 490 kts | 162° |
| 2026-05-07 14:53 | 38.37062 | 26.19817 | 30896 ft | 492 kts | 162° |
| 2026-05-07 14:54 | 38.33855 | 26.21349 | 30450 ft | 493 kts | 162° |
| 2026-05-07 14:54 | 38.30644 | 26.22886 | 29971 ft | 493 kts | 162° |
| 2026-05-07 14:54 | 38.27431 | 26.24423 | 29469 ft | 494 kts | 162° |
| 2026-05-07 14:54 | 38.24214 | 26.25965 | 28963 ft | 495 kts | 162° |
| 2026-05-07 14:55 | 38.20986 | 26.27516 | 28477 ft | 496 kts | 162° |
| 2026-05-07 14:55 | 38.17763 | 26.29068 | 28001 ft | 496 kts | 162° |
| 2026-05-07 14:55 | 38.14530 | 26.30626 | 27563 ft | 496 kts | 162° |
| 2026-05-07 14:55 | 38.11301 | 26.32183 | 27093 ft | 497 kts | 162° |
| 2026-05-07 14:56 | 38.08057 | 26.33745 | 26625 ft | 499 kts | 162° |
| 2026-05-07 14:56 | 38.04820 | 26.35314 | 26152 ft | 497 kts | 160° |
| 2026-05-07 14:56 | 38.01707 | 26.37055 | 25210 ft | 483 kts | 157° |
| 2026-05-07 14:56 | 37.98702 | 26.38925 | 23999 ft | 479 kts | 156° |
| 2026-05-07 14:57 | 37.95756 | 26.40835 | 22620 ft | 474 kts | 155° |
| 2026-05-07 14:57 | 37.92840 | 26.42736 | 21266 ft | 468 kts | 155° |
| 2026-05-07 14:57 | 37.89954 | 26.44597 | 19996 ft | 462 kts | 155° |
| 2026-05-07 14:57 | 37.87104 | 26.46409 | 18810 ft | 458 kts | 156° |
| 2026-05-07 14:58 | 37.84298 | 26.48170 | 18293 ft | 440 kts | 156° |
| 2026-05-07 14:58 | 37.81568 | 26.49871 | 17802 ft | 440 kts | 156° |
| 2026-05-07 14:58 | 37.78776 | 26.51598 | 17355 ft | 452 kts | 156° |
| 2026-05-07 14:58 | 37.75945 | 26.53345 | 16889 ft | 452 kts | 156° |
| 2026-05-07 14:59 | 37.73139 | 26.55078 | 16443 ft | 445 kts | 155° |
| 2026-05-07 14:59 | 37.70373 | 26.56788 | 16016 ft | 440 kts | 155° |
| 2026-05-07 14:59 | 37.67626 | 26.58454 | 15625 ft | 437 kts | 158° |
| 2026-05-07 14:59 | 37.64800 | 26.59837 | 15398 ft | 436 kts | 162° |
| 2026-05-07 15:00 | 37.61908 | 26.60988 | 15208 ft | 435 kts | 166° |
| 2026-05-07 15:00 | 37.58983 | 26.61971 | 15060 ft | 436 kts | 167° |
| 2026-05-07 15:00 | 37.56056 | 26.62895 | 14816 ft | 433 kts | 168° |
| 2026-05-07 15:00 | 37.53140 | 26.63813 | 14580 ft | 431 kts | 167° |
| 2026-05-07 15:01 | 37.50268 | 26.64735 | 14350 ft | 430 kts | 167° |
| 2026-05-07 15:01 | 37.47383 | 26.65680 | 14117 ft | 429 kts | 167° |
| 2026-05-07 15:01 | 37.44505 | 26.66637 | 13880 ft | 428 kts | 166° |
| 2026-05-07 15:01 | 37.41628 | 26.67603 | 13611 ft | 427 kts | 166° |
| 2026-05-07 15:02 | 37.38763 | 26.68569 | 13358 ft | 425 kts | 166° |
| 2026-05-07 15:02 | 37.35957 | 26.69516 | 13175 ft | 422 kts | 166° |
| 2026-05-07 15:02 | 37.33134 | 26.70468 | 13137 ft | 421 kts | 166° |
| 2026-05-07 15:02 | 37.30265 | 26.71434 | 13138 ft | 422 kts | 166° |
| 2026-05-07 15:03 | 37.27432 | 26.72387 | 13128 ft | 422 kts | 166° |
| 2026-05-07 15:03 | 37.24633 | 26.73328 | 13130 ft | 422 kts | 166° |
| 2026-05-07 15:03 | 37.21791 | 26.74282 | 13139 ft | 422 kts | 166° |
| 2026-05-07 15:03 | 37.18953 | 26.75234 | 13130 ft | 422 kts | 166° |
| 2026-05-07 15:04 | 37.16117 | 26.76185 | 13131 ft | 422 kts | 166° |
| 2026-05-07 15:04 | 37.13275 | 26.77137 | 13134 ft | 422 kts | 166° |
| 2026-05-07 15:04 | 37.10434 | 26.78087 | 13139 ft | 423 kts | 166° |
| 2026-05-07 15:04 | 37.07593 | 26.79038 | 13130 ft | 423 kts | 166° |
| 2026-05-07 15:05 | 37.04753 | 26.79987 | 13134 ft | 422 kts | 166° |
| 2026-05-07 15:05 | 37.01917 | 26.80934 | 13135 ft | 422 kts | 166° |
| 2026-05-07 15:05 | 36.99077 | 26.81882 | 13135 ft | 423 kts | 166° |
| 2026-05-07 15:05 | 36.96234 | 26.82830 | 13134 ft | 423 kts | 166° |
| 2026-05-07 15:06 | 36.93412 | 26.83785 | 13133 ft | 423 kts | 163° |
| 2026-05-07 15:06 | 36.90766 | 26.85391 | 13128 ft | 424 kts | 143° |
| 2026-05-07 15:06 | 36.88660 | 26.87906 | 12963 ft | 414 kts | 132° |
| 2026-05-07 15:06 | 36.86570 | 26.90313 | 12176 ft | 404 kts | 142° |
| 2026-05-07 15:07 | 36.84277 | 26.92279 | 11127 ft | 398 kts | 148° |
| 2026-05-07 15:07 | 36.81918 | 26.94046 | 10088 ft | 392 kts | 149° |
| 2026-05-07 15:07 | 36.79572 | 26.95740 | 8980 ft | 387 kts | 150° |
| 2026-05-07 15:07 | 36.77281 | 26.97446 | 7915 ft | 380 kts | 148° |
| 2026-05-07 15:08 | 36.75082 | 26.99146 | 6920 ft | 374 kts | 147° |
| 2026-05-07 15:08 | 36.72892 | 27.00845 | 5907 ft | 368 kts | 147° |
| 2026-05-07 15:08 | 36.70738 | 27.02511 | 5543 ft | 357 kts | 147° |
| 2026-05-07 15:08 | 36.68693 | 27.04091 | 5511 ft | 337 kts | 147° |
| 2026-05-07 15:09 | 36.66751 | 27.05588 | 5510 ft | 317 kts | 147° |
| 2026-05-07 15:09 | 36.64924 | 27.06999 | 5515 ft | 303 kts | 147° |
| 2026-05-07 15:09 | 36.63155 | 27.08361 | 5522 ft | 298 kts | 147° |
| 2026-05-07 15:09 | 36.61372 | 27.09735 | 5537 ft | 305 kts | 147° |
| 2026-05-07 15:10 | 36.59632 | 27.11225 | 5497 ft | 299 kts | 134° |
| 2026-05-07 15:10 | 36.58621 | 27.13366 | 5305 ft | 283 kts | 102° |
| 2026-05-07 15:10 | 36.58643 | 27.15766 | 4649 ft | 282 kts | 71° |
| 2026-05-07 15:10 | 36.59423 | 27.17994 | 4026 ft | 281 kts | 60° |
| 2026-05-07 15:11 | 36.60619 | 27.19822 | 3814 ft | 266 kts | 34° |
| 2026-05-07 15:11 | 36.62273 | 27.20645 | 3681 ft | 253 kts | 7° |
| 2026-05-07 15:11 | 36.64005 | 27.20615 | 3445 ft | 249 kts | 346° |
| 2026-05-07 15:11 | 36.65599 | 27.19826 | 3202 ft | 245 kts | 332° |
| 2026-05-07 15:12 | 36.67070 | 27.18769 | 3005 ft | 240 kts | 327° |
| 2026-05-07 15:12 | 36.68464 | 27.17685 | 2715 ft | 233 kts | 327° |
| 2026-05-07 15:12 | 36.69812 | 27.16627 | 2428 ft | 225 kts | 327° |
| 2026-05-07 15:12 | 36.71120 | 27.15603 | 2131 ft | 218 kts | 327° |
| 2026-05-07 15:13 | 36.72365 | 27.14632 | 1844 ft | 205 kts | 326° |
| 2026-05-07 15:13 | 36.73521 | 27.13736 | 1569 ft | 186 kts | 327° |
| 2026-05-07 15:13 | 36.74570 | 27.12918 | 1343 ft | 172 kts | 326° |
| 2026-05-07 15:13 | 36.75539 | 27.12163 | 1194 ft | 155 kts | 326° |
| 2026-05-07 15:14 | 36.76431 | 27.11471 | 940 ft | 151 kts | 326° |
| 2026-05-07 15:14 | 36.77318 | 27.10780 | 713 ft | 147 kts | 325° |
| 2026-05-07 15:14 | 36.78165 | 27.10120 | 517 ft | 143 kts | 326° |
| 2026-05-07 15:14 | 36.78998 | 27.09470 | 397 ft | 132 kts | 329° |
| 2026-05-07 15:15 | 36.79581 | 27.09020 | 414 ft | 67 kts | 328° |
| 2026-05-07 15:15 | 36.79943 | 27.08735 | 410 ft | 59 kts | 328° |
| 2026-05-07 15:15 | 36.80245 | 27.08502 | 411 ft | 25 kts | 328° |
| 2026-05-07 15:15 | 36.80343 | 27.08460 | 417 ft | 9 kts | 27° |
| 2026-05-07 15:16 | 36.80349 | 27.08534 | 410 ft | 10 kts | 107° |
| 2026-05-07 15:16 | 36.80333 | 27.08617 | 416 ft | 10 kts | 102° |
| 2026-05-07 15:16 | 36.80305 | 27.08692 | 416 ft | 11 kts | 140° |
| 2026-05-07 15:16 | 36.80239 | 27.08743 | 414 ft | 11 kts | 148° |
| 2026-05-07 15:17 | 36.80174 | 27.08796 | 413 ft | 12 kts | 147° |
| 2026-05-07 15:17 | 36.80147 | 27.08832 | 418 ft | 3 kts | 78° |
| 2026-05-07 15:17 | 36.80156 | 27.08855 | 418 ft | 3 kts | 62° |
| 2026-05-07 15:17 | 36.80171 | 27.08883 | 418 ft | 5 kts | 57° |
| 2026-05-07 15:18 | 36.80181 | 27.08903 | 416 ft | 1 kts | 58° |
| 2026-05-07 15:18 | 36.80181 | 27.08904 | 416 ft | 0 kts | 58° |